createdAt,value
2022-08-30T00:01:44.338Z,83.23
2022-08-30T00:16:44.953Z,82.55
2022-08-30T00:31:46.820Z,81.02
2022-08-30T00:46:47.842Z,81.53
2022-08-30T01:01:49.834Z,81.16
2022-08-30T01:16:50.363Z,80.79
2022-08-30T01:31:52.231Z,81.71
2022-08-30T01:46:52.828Z,80.42
2022-08-30T02:01:54.703Z,80.93
2022-08-30T02:16:55.329Z,79.74
2022-08-30T02:31:57.178Z,79.13
2022-08-30T02:46:57.742Z,78.34
2022-08-30T03:01:59.616Z,77.35
2022-08-30T03:17:00.209Z,76.43
2022-08-30T03:32:02.384Z,76.09
2022-08-30T03:47:02.884Z,75.89
2022-08-30T04:02:04.791Z,76.84
2022-08-30T04:17:05.915Z,76.15
2022-08-30T04:32:07.863Z,75.10
2022-08-30T04:47:08.871Z,75.06
2022-08-30T05:02:14.328Z,74.89
2022-08-30T05:17:15.807Z,75.43
2022-08-30T05:32:17.489Z,73.87
2022-08-30T05:47:17.949Z,72.89
2022-08-30T06:02:19.910Z,71.37
2022-08-30T06:17:20.427Z,71.91
2022-08-30T06:32:22.277Z,69.81
2022-08-30T06:47:22.887Z,68.26
2022-08-30T07:02:23.554Z,70.25
2022-08-30T07:17:24.093Z,71.17
2022-08-30T07:32:25.938Z,75.37
2022-08-30T07:47:26.052Z,77.19
2022-08-30T08:02:27.983Z,83.40
2022-08-30T08:17:28.494Z,87.79
2022-08-30T08:32:29.213Z,86.02
2022-08-30T08:47:29.695Z,91.90
2022-08-30T09:02:34.393Z,95.70
2022-08-30T09:17:35.197Z,99.99
2022-08-30T09:32:37.433Z,99.99
2022-08-30T09:47:37.593Z,99.99
2022-08-30T10:02:39.448Z,99.99
2022-08-30T10:17:40.064Z,98.18
2022-08-30T10:32:41.434Z,85.77
2022-08-30T10:47:42.149Z,78.31
2022-08-30T11:02:44.025Z,79.47
2022-08-30T11:17:44.665Z,75.76
2022-08-30T11:32:46.029Z,74.33
2022-08-30T11:47:46.137Z,69.26
2022-08-30T12:02:48.666Z,71.51
2022-08-30T12:17:50.702Z,70.72
2022-08-30T12:32:52.469Z,72.34
2022-08-30T12:47:52.566Z,72.61
2022-08-30T13:02:54.951Z,78.07
2022-08-30T13:17:55.316Z,83.11
2022-08-30T13:32:56.565Z,80.62
2022-08-30T13:47:58.089Z,81.37
2022-08-30T14:03:00.065Z,83.27
2022-08-30T14:18:01.305Z,78.04
2022-08-30T14:33:01.962Z,77.44
2022-08-30T14:48:02.100Z,78.00
2022-08-30T15:03:07.918Z,78.24
2022-08-30T15:18:09.384Z,79.04
2022-08-30T15:33:10.605Z,76.31
2022-08-30T15:48:11.169Z,75.80
2022-08-30T16:03:12.348Z,76.67
2022-08-30T16:18:14.091Z,80.85
2022-08-30T16:33:14.645Z,80.65
2022-08-30T16:48:14.722Z,82.32
2022-08-30T17:03:16.681Z,84.45
2022-08-30T17:18:17.202Z,86.74
2022-08-30T17:33:20.182Z,90.34
2022-08-30T17:48:21.107Z,93.51
2022-08-30T18:03:22.561Z,95.72
2022-08-30T18:18:25.116Z,98.93
2022-08-30T18:33:28.533Z,99.99
2022-08-30T18:48:28.353Z,99.99
2022-08-30T19:03:33.622Z,99.99
2022-08-30T19:18:33.654Z,99.99
2022-08-30T19:33:37.824Z,99.99
2022-08-30T19:48:42.274Z,99.99
2022-08-30T20:03:44.182Z,99.99
2022-08-30T20:18:44.509Z,99.99
2022-08-30T20:33:46.362Z,99.99
2022-08-30T20:48:47.915Z,99.99
2022-08-30T21:03:49.790Z,99.99
2022-08-30T21:18:50.120Z,99.99
2022-08-30T21:33:52.425Z,99.99
2022-08-30T21:48:53.040Z,99.99
2022-08-30T22:03:54.439Z,99.99
2022-08-30T22:18:54.667Z,99.99
2022-08-30T22:33:54.856Z,99.99
2022-08-30T22:48:55.410Z,99.99
2022-08-30T23:03:56.991Z,99.99
2022-08-30T23:18:57.130Z,99.99
2022-08-30T23:33:57.391Z,99.99
2022-08-30T23:48:57.596Z,98.48
